createdAt,value
2018-10-17T00:00:58.123Z,6.40
2018-10-17T00:02:01.559Z,7.10
2018-10-17T00:03:05.268Z,7.33
2018-10-17T00:04:08.674Z,7.20
2018-10-17T00:05:12.224Z,6.43
2018-10-17T00:06:15.582Z,6.77
2018-10-17T00:07:19.256Z,7.17
2018-10-17T00:08:22.702Z,7.17
2018-10-17T00:09:26.109Z,6.93
2018-10-17T00:10:29.522Z,6.37
2018-10-17T00:11:33.005Z,6.83
2018-10-17T00:12:36.486Z,6.20
2018-10-17T00:13:39.950Z,6.70
2018-10-17T00:14:43.469Z,6.90
2018-10-17T00:15:46.899Z,6.63
2018-10-17T00:16:50.317Z,7.30
2018-10-17T00:17:53.707Z,7.33
2018-10-17T00:18:57.153Z,6.30
2018-10-17T00:20:00.543Z,7.20
2018-10-17T00:21:04.221Z,6.20
2018-10-17T00:22:08.103Z,6.90
2018-10-17T00:23:11.548Z,6.00
2018-10-17T00:24:14.939Z,6.70
2018-10-17T00:25:18.333Z,6.60
2018-10-17T00:26:21.716Z,6.30
2018-10-17T00:27:25.793Z,6.50
2018-10-17T00:28:29.185Z,6.07
2018-10-17T00:29:32.704Z,6.27
2018-10-17T00:30:36.103Z,5.90
2018-10-17T00:31:39.531Z,6.13
2018-10-17T00:32:42.881Z,6.50
2018-10-17T00:33:46.285Z,6.70
2018-10-17T00:34:49.715Z,6.50
2018-10-17T00:35:53.138Z,6.17
2018-10-17T00:36:56.599Z,5.97
2018-10-17T00:37:59.922Z,6.83
2018-10-17T00:39:03.455Z,6.73
2018-10-17T00:40:07.214Z,6.43
2018-10-17T00:41:10.641Z,5.93
2018-10-17T00:42:14.031Z,6.57
2018-10-17T00:43:17.674Z,6.20
2018-10-17T00:44:20.987Z,6.83
2018-10-17T00:45:24.899Z,6.27
2018-10-17T00:46:28.688Z,6.50
2018-10-17T00:47:32.065Z,6.50
2018-10-17T00:48:35.457Z,6.00
2018-10-17T00:49:38.892Z,6.20
2018-10-17T00:50:42.326Z,6.50
2018-10-17T00:51:45.772Z,5.90
2018-10-17T00:52:49.257Z,5.73
2018-10-17T00:53:52.648Z,6.67
2018-10-17T00:54:56.122Z,6.53
2018-10-17T00:55:59.715Z,6.17
2018-10-17T00:57:03.098Z,6.07
2018-10-17T00:58:06.543Z,6.27
2018-10-17T00:59:14.380Z,6.20
2018-10-17T01:00:17.808Z,5.57
2018-10-17T01:01:21.300Z,6.10
2018-10-17T01:02:24.780Z,6.70
2018-10-17T01:03:28.199Z,6.17
2018-10-17T01:04:31.625Z,6.20
2018-10-17T01:05:35.039Z,6.43
2018-10-17T01:06:38.909Z,6.30
2018-10-17T01:07:42.315Z,6.10
2018-10-17T01:08:45.689Z,6.57
2018-10-17T01:09:49.111Z,5.53
2018-10-17T01:10:52.517Z,6.40
2018-10-17T01:11:56.082Z,5.43
2018-10-17T01:12:59.507Z,5.93
2018-10-17T01:14:03.220Z,6.33
2018-10-17T01:15:06.657Z,6.20
2018-10-17T01:16:10.138Z,6.40
2018-10-17T01:17:13.620Z,5.93
2018-10-17T01:18:16.984Z,5.40
2018-10-17T01:19:20.388Z,5.80
2018-10-17T01:20:23.788Z,5.50
2018-10-17T01:21:27.388Z,5.90
2018-10-17T01:22:30.850Z,5.80
2018-10-17T01:23:34.265Z,5.80
2018-10-17T01:24:37.702Z,5.43
2018-10-17T01:25:41.295Z,5.83
2018-10-17T01:26:44.689Z,5.83
2018-10-17T01:27:48.131Z,5.97
2018-10-17T01:28:51.851Z,6.10
2018-10-17T01:29:55.826Z,6.20
2018-10-17T01:30:59.280Z,6.80
2018-10-17T01:32:05.368Z,5.97
2018-10-17T01:33:08.765Z,5.87
2018-10-17T01:34:12.180Z,5.50
2018-10-17T01:35:15.644Z,5.40
2018-10-17T01:36:19.010Z,6.07
2018-10-17T01:37:22.388Z,5.30
2018-10-17T01:38:25.871Z,5.50
2018-10-17T01:39:29.296Z,6.10
2018-10-17T01:40:32.857Z,6.33
2018-10-17T01:41:36.295Z,5.20
2018-10-17T01:42:39.764Z,5.90
2018-10-17T01:43:43.140Z,5.70
2018-10-17T01:44:46.953Z,5.30
2018-10-17T01:45:50.398Z,5.93
2018-10-17T01:46:53.895Z,5.17
2018-10-17T01:47:57.360Z,6.70
2018-10-17T01:49:00.818Z,5.80
2018-10-17T01:50:04.848Z,5.77
2018-10-17T01:51:08.220Z,5.73
2018-10-17T01:52:11.844Z,5.27
2018-10-17T01:53:15.418Z,5.83
2018-10-17T01:54:18.705Z,5.50
2018-10-17T01:55:22.109Z,5.60
2018-10-17T01:56:30.898Z,5.37
2018-10-17T01:57:34.498Z,6.23
2018-10-17T01:58:37.872Z,5.60
2018-10-17T01:59:41.253Z,5.70
2018-10-17T02:00:44.659Z,5.50
2018-10-17T02:01:48.113Z,5.43
2018-10-17T02:02:51.635Z,5.30
2018-10-17T02:03:55.185Z,6.40
2018-10-17T02:04:58.646Z,5.17
2018-10-17T02:06:02.086Z,5.60
2018-10-17T02:07:06.037Z,5.80
2018-10-17T02:08:09.409Z,5.10
2018-10-17T02:09:12.837Z,5.73
2018-10-17T02:10:16.237Z,5.90
2018-10-17T02:11:19.598Z,5.57
2018-10-17T02:12:23.001Z,5.40
2018-10-17T02:13:26.413Z,6.07
2018-10-17T02:14:29.799Z,5.50
2018-10-17T02:15:33.276Z,5.30
2018-10-17T02:16:36.778Z,5.53
2018-10-17T02:17:40.161Z,5.80
2018-10-17T02:18:43.573Z,5.47
2018-10-17T02:19:46.962Z,5.53
2018-10-17T02:20:50.853Z,5.70
2018-10-17T02:21:54.341Z,5.40
2018-10-17T02:22:57.777Z,5.70
2018-10-17T02:24:01.267Z,5.20
2018-10-17T02:25:05.117Z,5.30
2018-10-17T02:26:08.487Z,5.43
2018-10-17T02:27:11.891Z,5.07
2018-10-17T02:28:16.224Z,5.50
2018-10-17T02:29:19.602Z,5.80
2018-10-17T02:30:23.032Z,5.93
2018-10-17T02:31:26.492Z,5.17
2018-10-17T02:32:29.896Z,5.50
2018-10-17T02:33:33.365Z,4.97
2018-10-17T02:34:42.160Z,5.30
2018-10-17T02:35:45.540Z,5.53
2018-10-17T02:36:48.926Z,5.80
2018-10-17T02:37:52.364Z,5.20
2018-10-17T02:38:55.894Z,5.90
2018-10-17T02:39:59.257Z,5.20
2018-10-17T02:41:02.939Z,5.30
2018-10-17T02:42:06.524Z,5.63
2018-10-17T02:43:09.978Z,5.30
2018-10-17T02:44:13.387Z,4.50
2018-10-17T02:45:16.807Z,5.77
2018-10-17T02:46:20.235Z,5.57
2018-10-17T02:47:23.767Z,4.97
2018-10-17T02:48:27.232Z,5.10
2018-10-17T02:49:30.684Z,4.67
2018-10-17T02:50:34.109Z,5.50
2018-10-17T02:51:37.534Z,5.57
2018-10-17T02:52:41.982Z,5.10
2018-10-17T02:53:45.409Z,5.17
2018-10-17T02:54:48.784Z,5.13
2018-10-17T02:55:52.176Z,5.00
2018-10-17T02:56:55.745Z,5.47
2018-10-17T02:57:59.185Z,5.50
2018-10-17T02:59:02.613Z,5.50
2018-10-17T03:00:07.350Z,4.40
2018-10-17T03:01:10.772Z,5.10
2018-10-17T03:02:14.232Z,5.83
2018-10-17T03:03:17.641Z,5.17
2018-10-17T03:04:21.157Z,4.60
2018-10-17T03:05:24.564Z,5.27
2018-10-17T03:06:27.981Z,4.83
2018-10-17T03:07:31.410Z,5.27
2018-10-17T03:08:34.896Z,4.90
2018-10-17T03:09:38.319Z,4.67
2018-10-17T03:10:41.915Z,4.93
2018-10-17T03:11:45.324Z,4.80
2018-10-17T03:12:48.740Z,4.57
2018-10-17T03:13:52.126Z,4.60
2018-10-17T03:14:55.546Z,4.90
2018-10-17T03:15:58.995Z,4.83
2018-10-17T03:17:02.495Z,4.57
2018-10-17T03:18:06.019Z,4.70
2018-10-17T03:19:09.447Z,4.77
2018-10-17T03:20:12.872Z,5.80
2018-10-17T03:21:16.277Z,5.50
2018-10-17T03:22:19.685Z,4.73
2018-10-17T03:23:23.121Z,4.53
2018-10-17T03:24:26.516Z,5.20
2018-10-17T03:25:29.944Z,4.80
2018-10-17T03:26:33.484Z,5.13
2018-10-17T03:27:37.036Z,5.90
2018-10-17T03:28:40.427Z,4.87
2018-10-17T03:29:43.810Z,5.00
2018-10-17T03:30:47.229Z,5.00
2018-10-17T03:31:50.691Z,4.70
2018-10-17T03:32:54.074Z,5.10
2018-10-17T03:33:57.495Z,4.97
2018-10-17T03:35:01.047Z,4.60
2018-10-17T03:36:04.772Z,5.03
2018-10-17T03:37:08.274Z,4.93
2018-10-17T03:38:11.593Z,4.83
2018-10-17T03:39:15.397Z,4.80
2018-10-17T03:40:18.796Z,4.80
2018-10-17T03:41:22.194Z,5.00
2018-10-17T03:42:26.179Z,5.27
2018-10-17T03:43:29.597Z,4.80
2018-10-17T03:44:33.015Z,4.40
2018-10-17T03:45:36.405Z,4.57
2018-10-17T03:46:39.932Z,4.90
2018-10-17T03:47:43.436Z,4.80
2018-10-17T03:48:46.879Z,4.60
2018-10-17T03:49:50.359Z,4.60
2018-10-17T03:50:53.787Z,4.87
2018-10-17T03:51:57.335Z,4.47
2018-10-17T03:53:00.834Z,3.80
2018-10-17T03:54:04.259Z,4.40
2018-10-17T03:55:07.660Z,4.83
2018-10-17T03:56:11.066Z,4.60
2018-10-17T03:57:14.512Z,5.20
2018-10-17T03:58:17.925Z,5.20
2018-10-17T03:59:21.483Z,4.70
2018-10-17T04:00:24.737Z,4.43
2018-10-17T04:01:28.346Z,4.90
2018-10-17T04:02:31.736Z,4.30
2018-10-17T04:03:35.149Z,4.80
2018-10-17T04:04:38.602Z,4.40
2018-10-17T04:05:41.981Z,4.60
2018-10-17T04:06:45.461Z,4.80
2018-10-17T04:07:48.884Z,4.63
2018-10-17T04:08:52.565Z,4.20
2018-10-17T04:09:55.960Z,4.47
2018-10-17T04:10:59.383Z,4.77
2018-10-17T04:12:02.774Z,4.40
2018-10-17T04:13:06.281Z,4.77
2018-10-17T04:14:09.660Z,4.73
2018-10-17T04:15:13.124Z,5.00
2018-10-17T04:16:16.495Z,4.73
2018-10-17T04:17:19.890Z,4.17
2018-10-17T04:18:23.298Z,5.20
2018-10-17T04:19:26.722Z,4.57
2018-10-17T04:20:30.104Z,5.10
2018-10-17T04:21:33.509Z,4.20
2018-10-17T04:22:37.053Z,4.90
2018-10-17T04:23:40.376Z,4.50
2018-10-17T04:24:43.837Z,4.80
2018-10-17T04:25:47.340Z,4.17
2018-10-17T04:26:50.820Z,5.00
2018-10-17T04:27:55.163Z,4.90
2018-10-17T04:28:58.570Z,4.60
2018-10-17T04:30:01.996Z,4.00
2018-10-17T04:31:05.538Z,4.87
2018-10-17T04:32:08.973Z,4.87
2018-10-17T04:33:12.437Z,4.60
2018-10-17T04:34:15.830Z,4.20
2018-10-17T04:35:19.519Z,4.70
2018-10-17T04:36:22.993Z,4.80
2018-10-17T04:37:26.315Z,4.57
2018-10-17T04:38:29.747Z,4.40
2018-10-17T04:39:33.148Z,4.20
2018-10-17T04:40:36.661Z,5.00
2018-10-17T04:41:41.006Z,5.50
2018-10-17T04:42:44.633Z,5.00
2018-10-17T04:43:48.009Z,4.13
2018-10-17T04:44:51.441Z,4.10
2018-10-17T04:45:55.627Z,5.13
2018-10-17T04:46:59.096Z,4.40
2018-10-17T04:48:02.913Z,4.60
2018-10-17T04:49:07.123Z,5.80
2018-10-17T04:50:11.504Z,5.57
2018-10-17T04:51:15.288Z,5.00
2018-10-17T04:52:18.661Z,7.07
2018-10-17T04:53:22.080Z,7.73
2018-10-17T04:54:25.487Z,7.17
2018-10-17T04:55:28.929Z,6.47
2018-10-17T04:56:32.462Z,6.97
2018-10-17T04:57:35.897Z,7.50
2018-10-17T04:58:39.285Z,7.27
2018-10-17T04:59:42.652Z,7.37
2018-10-17T05:00:46.046Z,6.77
2018-10-17T05:01:49.579Z,7.43
2018-10-17T05:02:53.015Z,7.00
2018-10-17T05:03:56.424Z,6.40
2018-10-17T05:04:59.956Z,7.83
2018-10-17T05:06:03.480Z,7.10
2018-10-17T05:07:06.989Z,6.10
2018-10-17T05:08:10.443Z,6.93
2018-10-17T05:09:13.936Z,6.60
2018-10-17T05:10:17.367Z,6.63
2018-10-17T05:11:20.797Z,5.83
2018-10-17T05:12:24.245Z,6.23
2018-10-17T05:13:27.657Z,6.37
2018-10-17T05:14:31.006Z,6.77
2018-10-17T05:15:34.427Z,6.90
2018-10-17T05:16:37.835Z,5.97
2018-10-17T05:17:41.235Z,7.43
2018-10-17T05:18:44.762Z,6.33
2018-10-17T05:19:48.141Z,6.60
2018-10-17T05:20:51.538Z,6.50
2018-10-17T05:21:54.941Z,6.20
2018-10-17T05:22:58.430Z,5.90
2018-10-17T05:24:01.877Z,6.70
2018-10-17T05:25:06.568Z,6.57
2018-10-17T05:26:09.942Z,5.90
2018-10-17T05:27:13.330Z,5.73
2018-10-17T05:28:16.863Z,6.27
2018-10-17T05:29:20.289Z,6.07
2018-10-17T05:30:23.774Z,6.03
2018-10-17T05:31:27.186Z,6.03
2018-10-17T05:32:30.561Z,6.00
2018-10-17T05:33:34.024Z,5.63
2018-10-17T05:34:37.412Z,6.30
2018-10-17T05:35:40.883Z,5.90
2018-10-17T05:36:44.264Z,6.40
2018-10-17T05:37:47.762Z,6.70
2018-10-17T05:38:51.173Z,6.10
2018-10-17T05:39:54.674Z,6.07
2018-10-17T05:40:58.145Z,6.07
2018-10-17T05:42:01.581Z,5.43
2018-10-17T05:43:05.079Z,6.00
2018-10-17T05:44:08.483Z,5.70
2018-10-17T05:45:11.874Z,5.97
2018-10-17T05:46:15.293Z,5.87
2018-10-17T05:47:18.686Z,5.73
2018-10-17T05:48:22.109Z,6.10
2018-10-17T05:49:25.586Z,6.10
2018-10-17T05:50:29.073Z,6.43
2018-10-17T05:51:32.497Z,6.20
2018-10-17T05:52:35.876Z,5.93
2018-10-17T05:53:39.239Z,5.30
2018-10-17T05:54:42.661Z,5.77
2018-10-17T05:55:46.320Z,5.83
2018-10-17T05:56:49.687Z,5.13
2018-10-17T05:57:53.179Z,5.90
2018-10-17T05:58:56.567Z,5.60
2018-10-17T06:00:00.057Z,6.30
2018-10-17T06:01:03.506Z,5.67
2018-10-17T06:02:10.594Z,5.43
2018-10-17T06:03:13.949Z,6.00
2018-10-17T06:04:17.444Z,5.93
2018-10-17T06:05:20.881Z,5.53
2018-10-17T06:06:24.380Z,5.67
2018-10-17T06:07:27.822Z,5.70
2018-10-17T06:08:31.254Z,6.10
2018-10-17T06:09:34.667Z,5.43
2018-10-17T06:10:38.174Z,6.00
2018-10-17T06:11:42.039Z,5.87
2018-10-17T06:12:45.474Z,5.43
2018-10-17T06:13:48.898Z,5.57
2018-10-17T06:14:52.300Z,5.83
2018-10-17T06:15:55.829Z,5.00
2018-10-17T06:16:59.315Z,5.70
2018-10-17T06:18:02.715Z,5.67
2018-10-17T06:19:06.260Z,5.43
2018-10-17T06:20:09.735Z,5.93
2018-10-17T06:21:13.165Z,5.40
2018-10-17T06:22:16.572Z,5.43
2018-10-17T06:23:19.971Z,5.20
2018-10-17T06:24:23.406Z,5.60
2018-10-17T06:25:26.808Z,5.63
2018-10-17T06:26:30.381Z,5.10
2018-10-17T06:27:33.808Z,5.97
2018-10-17T06:28:37.188Z,5.70
2018-10-17T06:29:40.629Z,5.77
2018-10-17T06:30:44.226Z,6.33
2018-10-17T06:31:47.647Z,5.47
2018-10-17T06:32:51.056Z,6.00
2018-10-17T06:33:54.603Z,5.43
2018-10-17T06:34:58.061Z,4.97
2018-10-17T06:36:01.488Z,5.67
2018-10-17T06:37:05.473Z,5.77
2018-10-17T06:38:08.948Z,5.53
2018-10-17T06:39:12.997Z,5.63
2018-10-17T06:40:16.400Z,5.50
2018-10-17T06:41:20.335Z,5.30
2018-10-17T06:42:23.911Z,5.23
2018-10-17T06:43:27.401Z,6.20
2018-10-17T06:44:30.790Z,5.97
2018-10-17T06:45:34.229Z,5.83
2018-10-17T06:46:37.677Z,5.33
2018-10-17T06:47:41.204Z,6.03
2018-10-17T06:48:44.598Z,4.90
2018-10-17T06:49:47.971Z,5.63
2018-10-17T06:50:51.355Z,5.13
2018-10-17T06:51:54.875Z,5.23
2018-10-17T06:52:58.390Z,5.80
2018-10-17T06:54:01.916Z,5.27
2018-10-17T06:55:06.078Z,6.43
2018-10-17T06:56:09.401Z,5.73
2018-10-17T06:57:12.784Z,5.57
2018-10-17T06:58:16.213Z,5.60
2018-10-17T06:59:19.633Z,5.67
2018-10-17T07:00:23.118Z,5.67
2018-10-17T07:01:26.647Z,5.60
2018-10-17T07:02:30.079Z,5.60
2018-10-17T07:03:33.542Z,5.83
2018-10-17T07:04:37.022Z,5.60
2018-10-17T07:05:40.432Z,5.50
2018-10-17T07:06:44.044Z,5.07
2018-10-17T07:07:47.658Z,5.17
2018-10-17T07:08:51.090Z,6.00
2018-10-17T07:09:54.629Z,6.10
2018-10-17T07:10:58.111Z,5.50
2018-10-17T07:12:01.468Z,5.53
2018-10-17T07:13:05.068Z,4.93
2018-10-17T07:14:08.468Z,5.60
2018-10-17T07:15:11.964Z,5.53
2018-10-17T07:16:15.397Z,5.57
2018-10-17T07:17:18.877Z,5.17
2018-10-17T07:18:22.397Z,5.90
2018-10-17T07:19:25.976Z,5.90
2018-10-17T07:20:29.404Z,5.37
2018-10-17T07:21:32.813Z,5.90
2018-10-17T07:22:36.225Z,5.60
2018-10-17T07:23:39.668Z,5.33
2018-10-17T07:24:43.100Z,5.30
2018-10-17T07:25:48.940Z,5.37
2018-10-17T07:26:52.350Z,5.70
2018-10-17T07:27:56.695Z,5.40
2018-10-17T07:29:00.103Z,5.10
2018-10-17T07:30:03.539Z,5.40
2018-10-17T07:31:07.586Z,5.23
2018-10-17T07:32:11.111Z,5.87
2018-10-17T07:33:14.667Z,5.50
2018-10-17T07:34:18.090Z,5.73
2018-10-17T07:35:21.483Z,5.40
2018-10-17T07:36:24.885Z,5.80
2018-10-17T07:37:28.453Z,5.77
2018-10-17T07:38:31.903Z,6.23
2018-10-17T07:39:35.308Z,5.80
2018-10-17T07:40:38.706Z,5.20
2018-10-17T07:41:42.102Z,5.40
2018-10-17T07:42:45.486Z,5.20
2018-10-17T07:43:48.904Z,6.00
2018-10-17T07:44:52.305Z,5.30
2018-10-17T07:45:55.780Z,6.00
2018-10-17T07:46:59.212Z,5.63
2018-10-17T07:48:02.693Z,5.47
2018-10-17T07:49:06.142Z,5.63
2018-10-17T07:50:10.556Z,5.20
2018-10-17T07:51:13.960Z,5.10
2018-10-17T07:52:17.399Z,5.90
2018-10-17T07:53:20.862Z,5.47
2018-10-17T07:54:24.226Z,6.07
2018-10-17T07:55:27.645Z,5.70
2018-10-17T07:56:31.103Z,5.43
2018-10-17T07:57:34.474Z,5.37
2018-10-17T07:58:37.953Z,5.90
2018-10-17T07:59:41.383Z,5.93
2018-10-17T08:00:44.809Z,5.70
2018-10-17T08:01:48.219Z,6.50
2018-10-17T08:02:51.592Z,5.53
2018-10-17T08:03:55.087Z,5.70
2018-10-17T08:04:58.513Z,5.17
2018-10-17T08:06:01.951Z,5.47
2018-10-17T08:07:05.756Z,5.93
2018-10-17T08:08:09.179Z,5.77
2018-10-17T08:09:12.877Z,5.93
2018-10-17T08:10:16.293Z,5.43
2018-10-17T08:11:19.714Z,5.50
2018-10-17T08:12:23.205Z,5.27
2018-10-17T08:13:26.899Z,5.70
2018-10-17T08:14:30.372Z,5.83
2018-10-17T08:15:33.800Z,5.47
2018-10-17T08:16:37.211Z,5.53
2018-10-17T08:17:40.713Z,5.63
2018-10-17T08:18:44.141Z,6.00
2018-10-17T08:19:47.507Z,5.97
2018-10-17T08:20:50.938Z,5.20
2018-10-17T08:21:54.428Z,5.37
2018-10-17T08:22:57.873Z,5.87
2018-10-17T08:24:01.356Z,5.77
2018-10-17T08:25:06.155Z,5.07
2018-10-17T08:26:09.552Z,5.27
2018-10-17T08:27:13.161Z,5.50
2018-10-17T08:28:16.570Z,5.93
2018-10-17T08:29:20.036Z,5.37
2018-10-17T08:30:23.520Z,5.40
2018-10-17T08:31:26.967Z,5.60
2018-10-17T08:32:30.379Z,5.43
2018-10-17T08:33:33.792Z,5.83
2018-10-17T08:34:37.379Z,5.80
2018-10-17T08:35:40.883Z,5.47
2018-10-17T08:36:44.488Z,5.37
2018-10-17T08:37:48.196Z,5.03
2018-10-17T08:38:51.146Z,5.40
2018-10-17T08:39:54.517Z,6.03
2018-10-17T08:40:58.085Z,5.37
2018-10-17T08:42:01.507Z,5.40
2018-10-17T08:43:06.013Z,5.60
2018-10-17T08:44:09.522Z,5.40
2018-10-17T08:45:12.933Z,5.80
2018-10-17T08:46:16.323Z,5.93
2018-10-17T08:47:19.722Z,5.50
2018-10-17T08:48:23.178Z,5.67
2018-10-17T08:49:26.728Z,5.50
2018-10-17T08:50:30.272Z,5.50
2018-10-17T08:51:33.594Z,5.30
2018-10-17T08:52:36.958Z,5.10
2018-10-17T08:53:40.369Z,5.20
2018-10-17T08:54:43.756Z,5.30
2018-10-17T08:55:47.155Z,5.73
2018-10-17T08:56:50.582Z,5.70
2018-10-17T08:57:54.020Z,5.40
2018-10-17T08:58:57.448Z,5.07
2018-10-17T09:00:01.063Z,5.57
2018-10-17T09:01:04.592Z,4.80
2018-10-17T09:02:08.284Z,5.80
2018-10-17T09:03:11.709Z,5.80
2018-10-17T09:04:15.163Z,5.23
2018-10-17T09:05:18.624Z,5.73
2018-10-17T09:06:22.032Z,4.97
2018-10-17T09:07:25.680Z,5.47
2018-10-17T09:08:29.135Z,6.00
2018-10-17T09:09:32.646Z,5.63
2018-10-17T09:10:36.048Z,4.80
2018-10-17T09:11:39.944Z,5.90
2018-10-17T09:12:43.379Z,5.47
2018-10-17T09:13:46.806Z,5.87
2018-10-17T09:14:50.219Z,5.23
2018-10-17T09:15:53.609Z,5.30
2018-10-17T09:16:57.061Z,5.50
2018-10-17T09:18:00.515Z,5.30
2018-10-17T09:19:03.967Z,4.80
2018-10-17T09:20:08.797Z,5.20
2018-10-17T09:21:12.148Z,5.40
2018-10-17T09:22:15.664Z,5.77
2018-10-17T09:23:18.815Z,5.20
2018-10-17T09:24:22.300Z,5.40
2018-10-17T09:25:25.882Z,5.67
2018-10-17T09:26:29.491Z,5.27
2018-10-17T09:27:32.879Z,5.07
2018-10-17T09:28:36.265Z,5.87
2018-10-17T09:29:39.678Z,5.27
2018-10-17T09:30:44.593Z,4.67
2018-10-17T09:31:48.287Z,5.30
2018-10-17T09:32:51.717Z,5.07
2018-10-17T09:33:55.197Z,5.00
2018-10-17T09:34:58.686Z,5.40
2018-10-17T09:36:02.136Z,6.00
2018-10-17T09:37:05.687Z,5.53
2018-10-17T09:38:09.096Z,5.53
2018-10-17T09:39:12.896Z,5.17
2018-10-17T09:40:16.314Z,5.17
2018-10-17T09:41:19.715Z,5.30
2018-10-17T09:42:23.152Z,5.40
2018-10-17T09:43:27.419Z,5.30
2018-10-17T09:44:30.818Z,5.40
2018-10-17T09:45:34.236Z,5.27
2018-10-17T09:46:37.700Z,5.27
2018-10-17T09:47:41.104Z,6.00
2018-10-17T09:48:44.502Z,4.80
2018-10-17T09:49:47.971Z,5.70
2018-10-17T09:50:51.440Z,5.20
2018-10-17T09:51:54.872Z,5.67
2018-10-17T09:52:58.390Z,5.10
2018-10-17T09:54:02.091Z,5.30
2018-10-17T09:55:06.164Z,4.83
2018-10-17T09:56:11.016Z,4.57
2018-10-17T09:57:14.447Z,4.70
2018-10-17T09:58:17.966Z,5.20
2018-10-17T09:59:21.420Z,4.47
2018-10-17T10:00:30.822Z,4.70
2018-10-17T10:01:34.296Z,5.30
2018-10-17T10:02:37.749Z,4.80
2018-10-17T10:03:41.213Z,5.20
2018-10-17T10:04:46.397Z,5.27
2018-10-17T10:05:50.198Z,5.33
2018-10-17T10:06:54.098Z,4.57
2018-10-17T10:07:57.954Z,4.97
2018-10-17T10:09:01.390Z,5.30
2018-10-17T10:10:05.184Z,5.13
2018-10-17T10:11:08.887Z,4.70
2018-10-17T10:12:12.409Z,5.47
2018-10-17T10:13:15.829Z,5.07
2018-10-17T10:14:19.262Z,5.20
2018-10-17T10:15:22.727Z,5.37
2018-10-17T10:16:27.127Z,5.30
2018-10-17T10:17:31.103Z,5.27
2018-10-17T10:18:34.499Z,4.93
2018-10-17T10:19:38.057Z,4.90
2018-10-17T10:20:41.502Z,4.93
2018-10-17T10:21:45.084Z,5.13
2018-10-17T10:22:48.497Z,5.10
2018-10-17T10:23:52.572Z,4.80
2018-10-17T10:24:56.109Z,5.40
2018-10-17T10:25:59.523Z,6.27
2018-10-17T10:27:03.123Z,5.50
2018-10-17T10:28:06.636Z,6.03
2018-10-17T10:29:09.994Z,5.73
2018-10-17T10:30:13.429Z,5.47
2018-10-17T10:31:16.862Z,5.60
2018-10-17T10:32:20.268Z,5.47
2018-10-17T10:33:23.763Z,5.47
2018-10-17T10:34:27.166Z,5.10
2018-10-17T10:35:30.997Z,6.10
2018-10-17T10:36:34.422Z,5.57
2018-10-17T10:37:37.828Z,5.20
2018-10-17T10:38:41.241Z,5.10
2018-10-17T10:39:44.684Z,5.47
2018-10-17T10:40:48.132Z,5.20
2018-10-17T10:41:51.528Z,6.30
2018-10-17T10:42:54.992Z,5.67
2018-10-17T10:43:58.587Z,6.00
2018-10-17T10:45:02.025Z,5.10
2018-10-17T10:46:06.250Z,5.97
2018-10-17T10:47:09.694Z,6.07
2018-10-17T10:48:13.271Z,5.23
2018-10-17T10:49:16.707Z,5.87
2018-10-17T10:50:20.178Z,6.30
2018-10-17T10:51:23.727Z,5.20
2018-10-17T10:52:27.062Z,5.23
2018-10-17T10:53:30.503Z,5.90
2018-10-17T10:54:33.934Z,5.40
2018-10-17T10:55:37.333Z,6.10
2018-10-17T10:56:40.836Z,5.80
2018-10-17T10:57:44.254Z,5.50
2018-10-17T10:58:47.723Z,5.13
2018-10-17T10:59:51.150Z,5.53
2018-10-17T11:00:54.598Z,5.70
2018-10-17T11:01:58.122Z,5.50
2018-10-17T11:03:01.509Z,5.33
2018-10-17T11:04:05.493Z,6.17
2018-10-17T11:05:09.247Z,5.17
2018-10-17T11:06:12.680Z,6.27
2018-10-17T11:07:16.073Z,5.30
2018-10-17T11:08:19.478Z,6.10
2018-10-17T11:09:22.951Z,6.00
2018-10-17T11:10:26.413Z,6.00
2018-10-17T11:11:29.872Z,5.70
2018-10-17T11:12:33.366Z,5.67
2018-10-17T11:13:36.736Z,5.50
2018-10-17T11:14:40.248Z,6.10
2018-10-17T11:15:43.624Z,5.70
2018-10-17T11:16:47.070Z,5.70
2018-10-17T11:17:50.468Z,5.67
2018-10-17T11:18:53.876Z,5.70
2018-10-17T11:19:57.325Z,6.03
2018-10-17T11:21:00.723Z,6.03
2018-10-17T11:22:04.305Z,5.50
2018-10-17T11:23:07.599Z,5.90
2018-10-17T11:24:10.992Z,6.20
2018-10-17T11:25:14.404Z,5.97
2018-10-17T11:26:17.803Z,6.03
2018-10-17T11:27:21.228Z,6.17
2018-10-17T11:28:24.728Z,6.03
2018-10-17T11:29:28.155Z,6.00
2018-10-17T11:30:31.566Z,5.90
2018-10-17T11:31:35.036Z,5.70
2018-10-17T11:32:38.467Z,6.20
2018-10-17T11:33:41.884Z,6.40
2018-10-17T11:34:45.242Z,6.00
2018-10-17T11:35:48.675Z,5.73
2018-10-17T11:36:52.078Z,6.10
2018-10-17T11:37:55.551Z,6.30
2018-10-17T11:38:59.071Z,6.03
2018-10-17T11:40:02.489Z,6.30
2018-10-17T11:41:05.970Z,5.13
2018-10-17T11:42:09.360Z,6.33
2018-10-17T11:43:12.761Z,6.00
2018-10-17T11:44:16.191Z,6.10
2018-10-17T11:45:19.725Z,5.90
2018-10-17T11:46:23.092Z,6.00
2018-10-17T11:47:26.653Z,6.27
2018-10-17T11:48:30.070Z,6.40
2018-10-17T11:49:33.487Z,6.80
2018-10-17T11:50:36.981Z,5.60
2018-10-17T11:51:40.404Z,5.70
2018-10-17T11:52:43.828Z,6.33
2018-10-17T11:53:47.283Z,7.00
2018-10-17T11:54:50.708Z,6.17
2018-10-17T11:55:54.172Z,6.77
2018-10-17T11:56:57.600Z,6.00
2018-10-17T11:58:01.074Z,5.77
2018-10-17T11:59:04.614Z,6.53
2018-10-17T12:00:10.015Z,6.13
2018-10-17T12:01:13.475Z,5.90
2018-10-17T12:02:16.936Z,6.33
2018-10-17T12:03:20.391Z,7.07
2018-10-17T12:04:23.969Z,6.27
2018-10-17T12:05:27.492Z,6.00
2018-10-17T12:06:30.790Z,6.77
2018-10-17T12:07:34.094Z,6.93
2018-10-17T12:08:37.522Z,6.50
2018-10-17T12:09:41.161Z,6.27
2018-10-17T12:10:44.605Z,6.00
2018-10-17T12:11:48.050Z,6.90
2018-10-17T12:12:51.451Z,6.37
2018-10-17T12:13:55.521Z,7.40
2018-10-17T12:14:59.090Z,6.30
2018-10-17T12:16:02.548Z,6.83
2018-10-17T12:17:06.428Z,6.33
2018-10-17T12:18:10.616Z,6.47
2018-10-17T12:19:15.582Z,6.10
2018-10-17T12:20:18.970Z,7.27
2018-10-17T12:21:22.482Z,7.43
2018-10-17T12:22:26.101Z,6.60
2018-10-17T12:23:29.507Z,7.17
2018-10-17T12:24:32.930Z,7.07
2018-10-17T12:25:36.432Z,7.10
2018-10-17T12:26:39.844Z,7.80
2018-10-17T12:27:43.659Z,7.37
2018-10-17T12:28:47.468Z,7.23
2018-10-17T12:29:50.934Z,7.07
2018-10-17T12:30:54.346Z,6.73
2018-10-17T12:31:57.983Z,7.43
2018-10-17T12:33:01.498Z,7.07
2018-10-17T12:34:04.908Z,7.07
2018-10-17T12:35:08.796Z,7.60
2018-10-17T12:36:12.229Z,7.80
2018-10-17T12:37:15.956Z,7.27
2018-10-17T12:38:19.385Z,7.13
2018-10-17T12:39:22.972Z,7.40
2018-10-17T12:40:26.741Z,6.83
2018-10-17T12:41:30.475Z,7.47
2018-10-17T12:42:33.867Z,8.03
2018-10-17T12:43:37.274Z,7.80
2018-10-17T12:44:40.697Z,7.20
2018-10-17T12:45:44.181Z,6.97
2018-10-17T12:46:47.601Z,7.67
2018-10-17T12:47:51.105Z,7.13
2018-10-17T12:48:54.899Z,6.73
2018-10-17T12:49:58.387Z,8.17
2018-10-17T12:51:01.797Z,6.40
2018-10-17T12:52:05.545Z,6.50
2018-10-17T12:53:09.092Z,6.37
2018-10-17T12:54:12.628Z,6.63
2018-10-17T12:55:16.136Z,7.43
2018-10-17T12:56:19.494Z,7.60
2018-10-17T12:57:22.921Z,7.17
2018-10-17T12:58:26.351Z,7.30
2018-10-17T12:59:31.032Z,6.97
2018-10-17T13:00:34.440Z,7.80
2018-10-17T13:01:37.860Z,7.40
2018-10-17T13:02:41.303Z,7.10
2018-10-17T13:03:44.728Z,7.53
2018-10-17T13:04:48.130Z,7.63
2018-10-17T13:05:51.529Z,7.60
2018-10-17T13:06:55.049Z,7.33
2018-10-17T13:07:58.556Z,6.83
2018-10-17T13:09:02.024Z,7.40
2018-10-17T13:10:06.227Z,7.83
2018-10-17T13:11:09.791Z,7.20
2018-10-17T13:12:13.167Z,7.57
2018-10-17T13:13:16.594Z,8.80
2018-10-17T13:14:20.005Z,7.67
2018-10-17T13:15:23.481Z,8.10
2018-10-17T13:16:26.965Z,7.60
2018-10-17T13:17:30.440Z,8.40
2018-10-17T13:18:33.841Z,8.37
2018-10-17T13:19:37.296Z,8.20
2018-10-17T13:20:40.697Z,7.63
2018-10-17T13:21:44.286Z,7.93
2018-10-17T13:22:47.725Z,8.73
2018-10-17T13:23:51.341Z,8.23
2018-10-17T13:24:54.774Z,7.77
2018-10-17T13:25:58.206Z,8.10
2018-10-17T13:27:01.585Z,8.63
2018-10-17T13:28:05.037Z,8.20
2018-10-17T13:29:08.486Z,8.20
2018-10-17T13:30:11.915Z,8.47
2018-10-17T13:31:15.341Z,9.27
2018-10-17T13:32:18.681Z,8.27
2018-10-17T13:33:22.186Z,8.80
2018-10-17T13:34:25.948Z,8.57
2018-10-17T13:35:29.404Z,8.40
2018-10-17T13:36:32.821Z,8.13
2018-10-17T13:37:36.229Z,8.30
2018-10-17T13:38:39.698Z,8.80
2018-10-17T13:39:43.119Z,7.70
2018-10-17T13:40:46.577Z,8.47
2018-10-17T13:41:52.110Z,8.27
2018-10-17T13:42:56.024Z,7.80
2018-10-17T13:43:59.438Z,8.00
2018-10-17T13:45:02.919Z,8.30
2018-10-17T13:46:09.376Z,8.30
2018-10-17T13:47:15.514Z,7.97
2018-10-17T13:48:19.027Z,8.07
2018-10-17T13:49:22.591Z,8.40
2018-10-17T13:50:26.108Z,8.87
2018-10-17T13:51:29.880Z,8.53
2018-10-17T13:52:33.280Z,7.50
2018-10-17T13:53:36.675Z,8.20
2018-10-17T13:54:40.116Z,8.30
2018-10-17T13:55:43.511Z,8.07
2018-10-17T13:56:46.924Z,7.80
2018-10-17T13:57:50.325Z,8.53
2018-10-17T13:58:53.754Z,8.00
2018-10-17T13:59:57.570Z,7.70
2018-10-17T14:01:01.082Z,8.27
2018-10-17T14:02:04.442Z,8.10
2018-10-17T14:03:07.830Z,8.53
2018-10-17T14:04:11.314Z,7.93
2018-10-17T14:05:14.973Z,7.83
2018-10-17T14:06:18.707Z,8.90